Terminal Aerodrome Forecast
Issued by NWS

Home | Current Version | Previous Version | Text Only | Print | Product List | Glossary On
Versions: 1 2 3 4 5 6 7 8 9 10 11 12 13 14 15 16 17 18 19 20 21
000
FTUS41 KCAR 061120
TAFPQI
TAF
KPQI 061120Z 0612/0712 00000KT P6SM SKC
     FM061600 22006KT P6SM BKN040
     FM062000 19009KT P6SM BKN025
     FM070200 19010KT 5SM -SN BR OVC020
     FM071100 30014G22KT 3SM -SHSN OVC015=

USA.gov is the U.S. government's official web portal to all federal, state and local government web resources and services.